createdAt,value
2018-12-05T00:02:09.522Z,-0.02
2018-12-05T00:04:41.018Z,-0.05
2018-12-05T00:07:11.934Z,-0.06
2018-12-05T00:09:45.319Z,-0.07
2018-12-05T00:12:16.656Z,-0.11
2018-12-05T00:14:50.097Z,-0.12
2018-12-05T00:17:21.766Z,-0.13
2018-12-05T00:19:54.988Z,-0.17
2018-12-05T00:22:26.453Z,-0.18
2018-12-05T00:24:59.909Z,-0.21
2018-12-05T00:27:31.230Z,-0.29
2018-12-05T00:30:02.321Z,-0.40
2018-12-05T00:32:35.648Z,-0.41
2018-12-05T00:35:08.617Z,-0.44
2018-12-05T00:37:41.667Z,-0.43
2018-12-05T00:40:13.227Z,-0.46
2018-12-05T00:42:43.781Z,-0.45
2018-12-05T00:45:15.162Z,-0.41
2018-12-05T00:47:48.500Z,-0.39
2018-12-05T00:50:22.425Z,-0.37
2018-12-05T00:52:56.080Z,-0.37
2018-12-05T00:55:26.641Z,-0.32
2018-12-05T00:57:59.781Z,-0.31
2018-12-05T01:00:31.300Z,-0.23
2018-12-05T01:03:04.646Z,-0.12
2018-12-05T01:05:38.164Z,0.01
2018-12-05T01:08:09.653Z,0.08
2018-12-05T01:10:42.774Z,0.13
2018-12-05T01:13:16.686Z,0.16
2018-12-05T01:15:48.289Z,0.15
2018-12-05T01:18:19.310Z,0.16
2018-12-05T01:23:53.689Z,0.13
2018-12-05T01:26:27.433Z,0.15
2018-12-05T01:29:00.522Z,0.15
2018-12-05T01:31:33.601Z,0.15
2018-12-05T01:34:05.098Z,0.17
2018-12-05T01:36:38.153Z,0.19
2018-12-05T01:39:09.681Z,0.19
2018-12-05T01:41:42.869Z,0.15
2018-12-05T01:44:16.592Z,0.11
2018-12-05T01:46:49.775Z,0.08
2018-12-05T01:49:21.235Z,0.08
2018-12-05T01:51:54.458Z,0.08
2018-12-05T01:54:25.467Z,0.09
2018-12-05T01:56:58.974Z,0.15
2018-12-05T01:59:32.814Z,0.16
2018-12-05T02:02:04.213Z,0.12
2018-12-05T02:04:39.488Z,0.06
2018-12-05T02:07:10.310Z,0.00
2018-12-05T02:09:43.383Z,-0.04
2018-12-05T02:12:16.740Z,-0.05
2018-12-05T02:14:52.642Z,-0.08
2018-12-05T02:17:24.071Z,-0.10
2018-12-05T02:19:54.950Z,-0.12
2018-12-05T02:22:28.530Z,-0.11
2018-12-05T02:25:01.584Z,-0.10
2018-12-05T02:27:35.265Z,-0.13
2018-12-05T02:30:06.983Z,-0.22
2018-12-05T02:32:39.855Z,-0.30
2018-12-05T02:35:11.313Z,-0.38
2018-12-05T02:37:44.742Z,-0.44
2018-12-05T02:40:18.409Z,-0.48
2018-12-05T02:42:49.600Z,-0.53
2018-12-05T02:45:23.124Z,-0.53
2018-12-05T02:47:54.244Z,-0.49
2018-12-05T02:50:27.679Z,-0.38
2018-12-05T02:52:58.940Z,-0.25
2018-12-05T02:55:32.311Z,-0.24
2018-12-05T02:58:03.672Z,-0.29
2018-12-05T03:00:37.321Z,-0.33
2018-12-05T03:03:10.861Z,-0.32
2018-12-05T03:05:42.319Z,-0.30
2018-12-05T03:08:15.615Z,-0.27
2018-12-05T03:10:49.347Z,-0.20
2018-12-05T03:13:25.208Z,-0.21
2018-12-05T03:15:56.716Z,-0.19
2018-12-05T03:18:27.524Z,-0.19
2018-12-05T03:21:01.092Z,-0.14
2018-12-05T03:23:32.237Z,-0.11
2018-12-05T03:26:05.559Z,-0.10
2018-12-05T03:28:38.610Z,-0.13
2018-12-05T03:31:09.925Z,-0.17
2018-12-05T03:33:43.446Z,-0.18
2018-12-05T03:36:14.875Z,-0.13
2018-12-05T03:38:48.184Z,-0.12
2018-12-05T03:41:21.952Z,-0.12
2018-12-05T03:43:55.729Z,-0.08
2018-12-05T03:46:28.700Z,-0.05
2018-12-05T03:49:02.654Z,-0.07
2018-12-05T03:51:34.125Z,-0.11
2018-12-05T03:54:07.297Z,-0.13
2018-12-05T03:56:39.200Z,-0.14
2018-12-05T03:59:12.186Z,-0.12
2018-12-05T04:01:43.730Z,-0.10
2018-12-05T04:04:21.112Z,-0.09
2018-12-05T04:06:52.305Z,-0.05
2018-12-05T04:09:22.957Z,-0.04
2018-12-05T04:11:56.481Z,-0.05
2018-12-05T04:14:27.942Z,-0.09
2018-12-05T04:17:01.197Z,-0.16
2018-12-05T04:19:33.555Z,-0.19
2018-12-05T04:22:07.453Z,-0.26
2018-12-05T04:24:41.495Z,-0.38
2018-12-05T04:27:12.172Z,-0.42
2018-12-05T04:29:43.102Z,-0.44
2018-12-05T04:32:16.383Z,-0.49
2018-12-05T04:34:47.981Z,-0.47
2018-12-05T04:37:21.169Z,-0.43
2018-12-05T04:39:55.021Z,-0.47
2018-12-05T04:42:28.661Z,-0.52
2018-12-05T04:44:59.871Z,-0.59
2018-12-05T04:47:32.902Z,-0.68
2018-12-05T04:50:06.015Z,-0.78
2018-12-05T04:52:39.752Z,-0.82
2018-12-05T04:55:13.428Z,-0.91
2018-12-05T04:57:44.944Z,-0.96
2018-12-05T05:00:18.169Z,-1.01
2018-12-05T05:02:51.267Z,-1.05
2018-12-05T05:05:22.609Z,-1.12
2018-12-05T05:07:58.277Z,-1.17
2018-12-05T05:10:29.774Z,-1.26
2018-12-05T05:13:02.725Z,-1.33
2018-12-05T05:15:34.352Z,-1.39
2018-12-05T05:18:05.484Z,-1.45
2018-12-05T05:20:43.120Z,-1.50
2018-12-05T05:23:16.842Z,-1.57
2018-12-05T05:25:48.247Z,-1.57
2018-12-05T05:28:21.973Z,-1.61
2018-12-05T05:30:53.541Z,-1.68
2018-12-05T05:33:26.857Z,-1.75
2018-12-05T05:35:58.227Z,-1.82
2018-12-05T05:38:31.554Z,-1.86
2018-12-05T05:41:02.766Z,-1.87
2018-12-05T05:43:33.911Z,-1.82
2018-12-05T05:46:07.033Z,-1.83
2018-12-05T05:48:38.443Z,-1.85
2018-12-05T05:51:11.813Z,-1.84
2018-12-05T05:53:43.070Z,-1.90
2018-12-05T05:56:16.202Z,-1.90
2018-12-05T05:58:47.597Z,-1.91
2018-12-05T06:01:22.868Z,-1.97
2018-12-05T06:03:56.689Z,-2.02
2018-12-05T06:06:27.374Z,-2.07
2018-12-05T06:09:00.565Z,-2.13
2018-12-05T06:11:33.657Z,-2.16
2018-12-05T06:14:05.163Z,-2.16
2018-12-05T06:16:38.665Z,-2.08
2018-12-05T06:19:11.875Z,-2.09
2018-12-05T06:21:43.385Z,-2.12
2018-12-05T06:24:16.428Z,-2.16
2018-12-05T06:26:51.309Z,-2.20
2018-12-05T06:29:22.633Z,-2.23
2018-12-05T06:31:53.772Z,-2.16
2018-12-05T06:34:24.557Z,-1.97
2018-12-05T06:36:59.337Z,-1.95
2018-12-05T06:39:32.788Z,-1.95
2018-12-05T06:42:04.246Z,-2.00
2018-12-05T06:44:37.542Z,-2.05
2018-12-05T06:47:09.130Z,-2.12
2018-12-05T06:49:44.427Z,-2.17
2018-12-05T06:52:20.162Z,-2.23
2018-12-05T06:54:54.241Z,-2.27
2018-12-05T06:57:28.142Z,-2.31
2018-12-05T06:59:59.896Z,-2.34
2018-12-05T07:02:35.010Z,-2.36
2018-12-05T07:05:07.050Z,-2.39
2018-12-05T07:07:44.505Z,-2.39
2018-12-05T07:10:19.893Z,-2.38
2018-12-05T07:13:00.243Z,-2.36
2018-12-05T07:15:33.504Z,-2.34
2018-12-05T07:18:05.313Z,-2.33
2018-12-05T07:20:38.580Z,-2.30
2018-12-05T07:23:09.957Z,-2.28
2018-12-05T07:25:43.233Z,-2.18
2018-12-05T07:28:14.817Z,-2.06
2018-12-05T07:30:48.335Z,-1.88
2018-12-05T07:33:21.912Z,-1.67
2018-12-05T07:35:59.941Z,-1.53
2018-12-05T07:38:31.275Z,-1.36
2018-12-05T07:41:05.062Z,-1.28
2018-12-05T07:43:38.842Z,-1.15
2018-12-05T07:46:10.302Z,-1.06
2018-12-05T07:48:43.559Z,-0.97
2018-12-05T07:51:16.559Z,-0.88
2018-12-05T07:53:49.333Z,-0.83
2018-12-05T07:56:22.466Z,-0.77
2018-12-05T07:58:57.769Z,-0.76
2018-12-05T08:01:31.398Z,-0.79
2018-12-05T08:04:06.175Z,-0.80
2018-12-05T08:06:37.709Z,-0.78
2018-12-05T08:09:11.347Z,-0.74
2018-12-05T08:11:45.668Z,-0.68
2018-12-05T08:14:19.910Z,-0.53
2018-12-05T08:16:51.474Z,-0.50
2018-12-05T08:19:24.820Z,-0.47
2018-12-05T08:21:58.618Z,-0.46
2018-12-05T08:24:33.056Z,-0.41
2018-12-05T08:27:06.190Z,-0.33
2018-12-05T08:29:38.020Z,-0.19
2018-12-05T08:32:08.822Z,0.00
2018-12-05T08:34:42.123Z,0.18
2018-12-05T08:37:15.993Z,0.33
2018-12-05T08:39:47.697Z,0.51
2018-12-05T08:42:20.747Z,0.73
2018-12-05T08:44:52.423Z,0.99
2018-12-05T08:47:33.627Z,1.31
2018-12-05T08:50:01.215Z,1.62
2018-12-05T08:52:38.756Z,1.97
2018-12-05T08:55:12.576Z,2.33
2018-12-05T08:57:46.623Z,2.66
2018-12-05T09:00:19.825Z,2.99
2018-12-05T09:02:51.937Z,3.26
2018-12-05T09:05:25.495Z,3.61
2018-12-05T09:07:57.061Z,3.92
2018-12-05T09:10:30.036Z,4.20
2018-12-05T09:13:01.521Z,4.48
2018-12-05T09:15:34.733Z,4.70
2018-12-05T09:18:06.281Z,4.92
2018-12-05T09:20:39.731Z,4.91
2018-12-05T09:23:11.359Z,4.99
2018-12-05T09:25:45.356Z,5.06
2018-12-05T09:28:17.220Z,5.19
2018-12-05T09:30:48.682Z,5.33
2018-12-05T09:33:19.738Z,5.40
2018-12-05T09:35:56.888Z,5.50
2018-12-05T09:38:31.091Z,5.58
2018-12-05T09:41:05.039Z,5.68
2018-12-05T09:43:38.800Z,5.85
2018-12-05T09:46:10.514Z,6.11
2018-12-05T09:48:42.649Z,6.09
2018-12-05T09:51:13.898Z,6.05
2018-12-05T09:53:49.466Z,6.15
2018-12-05T09:56:23.177Z,6.37
2018-12-05T09:58:59.034Z,6.34
2018-12-05T10:01:32.986Z,6.38
2018-12-05T10:04:04.368Z,6.56
2018-12-05T10:06:37.764Z,6.61
2018-12-05T10:09:09.336Z,6.49
2018-12-05T10:11:47.018Z,6.49
2018-12-05T10:14:22.803Z,6.43
2018-12-05T10:16:56.533Z,6.40
2018-12-05T10:19:28.214Z,6.35
2018-12-05T10:22:07.824Z,6.31
2018-12-05T10:24:39.706Z,6.38
2018-12-05T10:27:12.939Z,6.37
2018-12-05T10:29:45.656Z,6.27
2018-12-05T10:32:20.705Z,6.09
2018-12-05T10:34:54.475Z,5.99
2018-12-05T10:37:28.451Z,6.15
2018-12-05T10:40:02.214Z,6.12
2018-12-05T10:42:35.970Z,5.91
2018-12-05T10:45:09.504Z,5.83
2018-12-05T10:47:41.361Z,5.80
2018-12-05T10:50:15.453Z,5.75
2018-12-05T10:52:49.355Z,5.81
2018-12-05T10:55:23.218Z,5.80
2018-12-05T10:57:54.819Z,5.72
2018-12-05T11:00:37.605Z,5.59
2018-12-05T11:03:14.731Z,5.43
2018-12-05T11:05:53.814Z,5.38
2018-12-05T11:08:31.105Z,5.36
2018-12-05T11:11:16.649Z,5.30
2018-12-05T11:13:53.769Z,5.26
2018-12-05T11:16:34.838Z,5.26
2018-12-05T11:19:18.673Z,5.33
2018-12-05T11:21:56.412Z,5.37
2018-12-05T11:24:32.905Z,5.40
2018-12-05T11:27:06.373Z,5.40
2018-12-05T11:29:37.740Z,5.42
2018-12-05T11:32:11.473Z,5.41
2018-12-05T11:34:43.264Z,5.42
2018-12-05T11:37:16.252Z,5.43
2018-12-05T11:39:47.882Z,5.45
2018-12-05T11:42:21.234Z,5.46
2018-12-05T11:44:52.585Z,5.49
2018-12-05T11:47:28.489Z,5.53
2018-12-05T11:50:01.749Z,5.45
2018-12-05T11:52:33.256Z,5.43
2018-12-05T11:55:06.163Z,5.38
2018-12-05T11:57:37.721Z,5.39
2018-12-05T12:00:10.917Z,5.40
2018-12-05T12:02:44.878Z,5.39
2018-12-05T12:05:16.594Z,5.40
2018-12-05T12:07:48.246Z,5.40
2018-12-05T12:10:24.627Z,5.45
2018-12-05T12:13:05.502Z,5.42
2018-12-05T12:15:38.645Z,5.47
2018-12-05T12:18:10.194Z,5.48
2018-12-05T12:20:43.563Z,5.55
2018-12-05T12:23:15.236Z,5.57
2018-12-05T12:25:50.349Z,5.54
2018-12-05T12:28:21.784Z,5.53
2018-12-05T12:30:55.156Z,5.54
2018-12-05T12:33:28.799Z,5.53
2018-12-05T12:36:03.487Z,5.55
2018-12-05T12:38:40.596Z,5.57
2018-12-05T12:41:14.359Z,5.53
2018-12-05T12:43:45.870Z,5.51
2018-12-05T12:46:18.939Z,5.46
2018-12-05T12:48:50.147Z,5.44
2018-12-05T12:51:23.781Z,5.47
2018-12-05T12:53:57.364Z,5.43
2018-12-05T12:56:34.570Z,5.43
2018-12-05T12:59:06.223Z,5.37
2018-12-05T13:01:39.453Z,5.35
2018-12-05T13:04:13.179Z,5.42
2018-12-05T13:06:46.893Z,5.42
2018-12-05T13:09:18.585Z,5.35
2018-12-05T13:11:51.749Z,5.27
2018-12-05T13:14:25.504Z,5.21
2018-12-05T13:17:01.316Z,5.15
2018-12-05T13:19:35.907Z,5.08
2018-12-05T13:22:09.848Z,4.97
2018-12-05T13:24:41.152Z,4.88
2018-12-05T13:27:14.560Z,4.84
2018-12-05T13:29:45.879Z,4.76
2018-12-05T13:32:16.570Z,4.69
2018-12-05T13:34:49.839Z,4.68
2018-12-05T13:37:21.543Z,4.64
2018-12-05T13:39:57.457Z,4.53
2018-12-05T13:42:30.580Z,4.46
2018-12-05T13:45:03.007Z,4.41
2018-12-05T13:47:34.812Z,4.40
2018-12-05T13:50:06.756Z,4.40
2018-12-05T13:52:37.721Z,4.32
2018-12-05T13:55:11.325Z,4.33
2018-12-05T13:57:45.115Z,4.27
2018-12-05T14:00:16.668Z,4.24
2018-12-05T14:02:53.866Z,4.17
2018-12-05T14:05:29.375Z,4.12
2018-12-05T14:08:03.344Z,4.14
2018-12-05T14:10:36.637Z,4.11
2018-12-05T14:13:11.424Z,4.05
2018-12-05T14:15:45.237Z,4.00
2018-12-05T14:18:19.367Z,3.97
2018-12-05T14:20:54.914Z,3.87
2018-12-05T14:23:28.230Z,3.80
2018-12-05T14:26:01.836Z,3.71
2018-12-05T14:28:33.149Z,3.66
2018-12-05T14:31:13.226Z,3.57
2018-12-05T14:33:46.471Z,3.49
2018-12-05T14:36:20.005Z,3.44
2018-12-05T14:38:51.546Z,3.39
2018-12-05T14:41:23.383Z,3.34
2018-12-05T14:43:56.844Z,3.29
2018-12-05T14:46:30.005Z,3.23
2018-12-05T14:49:04.230Z,3.23
2018-12-05T14:51:38.646Z,3.24
2018-12-05T14:54:12.359Z,3.16
2018-12-05T14:56:45.906Z,3.09
2018-12-05T14:59:20.628Z,3.11
2018-12-05T15:01:52.231Z,3.09
2018-12-05T15:04:26.979Z,3.11
2018-12-05T15:07:02.410Z,3.06
2018-12-05T15:09:36.621Z,2.98
2018-12-05T15:12:10.174Z,2.98
2018-12-05T15:14:41.706Z,2.94
2018-12-05T15:17:17.034Z,2.94
2018-12-05T15:19:50.568Z,2.90
2018-12-05T15:22:25.018Z,2.86
2018-12-05T15:24:59.772Z,2.83
2018-12-05T15:27:38.279Z,2.77
2018-12-05T15:30:09.976Z,2.76
2018-12-05T15:32:43.111Z,2.74
2018-12-05T15:35:17.908Z,2.67
2018-12-05T15:37:50.667Z,2.61
2018-12-05T15:40:24.499Z,2.52
2018-12-05T15:42:56.894Z,2.49
2018-12-05T15:45:30.193Z,2.51
2018-12-05T15:48:01.914Z,2.48
2018-12-05T15:50:35.054Z,2.45
2018-12-05T15:53:09.237Z,2.51
2018-12-05T15:55:40.870Z,2.47
2018-12-05T15:58:14.181Z,2.43
2018-12-05T16:00:48.114Z,2.54
2018-12-05T16:03:22.580Z,2.55
2018-12-05T16:05:54.660Z,2.57
2018-12-05T16:08:26.100Z,2.61
2018-12-05T16:10:59.401Z,2.65
2018-12-05T16:13:31.090Z,2.63
2018-12-05T16:16:04.249Z,2.63
2018-12-05T16:18:38.093Z,2.67
2018-12-05T16:21:13.845Z,2.69
2018-12-05T16:23:49.784Z,2.71
2018-12-05T16:26:21.240Z,2.76
2018-12-05T16:28:54.477Z,2.80
2018-12-05T16:31:25.698Z,2.77
2018-12-05T16:33:59.212Z,2.72
2018-12-05T16:36:30.520Z,2.69
2018-12-05T16:39:01.663Z,2.74
2018-12-05T16:41:41.165Z,2.77
2018-12-05T16:44:14.642Z,2.75
2018-12-05T16:46:49.667Z,2.78
2018-12-05T16:49:21.284Z,2.88
2018-12-05T16:51:54.735Z,2.88
2018-12-05T16:54:26.981Z,2.92
2018-12-05T16:57:00.010Z,2.93
2018-12-05T16:59:33.463Z,2.95
2018-12-05T17:02:04.888Z,2.90
2018-12-05T17:04:38.942Z,2.83
2018-12-05T17:07:12.720Z,2.83
2018-12-05T17:09:44.324Z,2.75
2018-12-05T17:12:17.499Z,2.76
2018-12-05T17:14:49.035Z,2.83
2018-12-05T17:17:20.290Z,2.91
2018-12-05T17:19:53.348Z,2.94
2018-12-05T17:22:24.748Z,2.98
2018-12-05T17:24:57.889Z,3.06
2018-12-05T17:27:31.487Z,3.05
2018-12-05T17:30:03.389Z,3.06
2018-12-05T17:32:36.738Z,3.03
2018-12-05T17:35:09.844Z,3.04
2018-12-05T17:37:43.888Z,3.17
2018-12-05T17:40:17.343Z,3.17
2018-12-05T17:42:52.329Z,3.16
2018-12-05T17:45:26.807Z,3.20
2018-12-05T17:47:58.333Z,3.26
2018-12-05T17:50:33.593Z,3.29
2018-12-05T17:53:05.558Z,3.29
2018-12-05T17:55:39.700Z,3.35
2018-12-05T17:58:11.028Z,3.40
2018-12-05T18:00:44.434Z,3.33
2018-12-05T18:03:15.586Z,3.39
2018-12-05T18:05:51.114Z,3.40
2018-12-05T18:08:24.719Z,3.37
2018-12-05T18:10:57.964Z,3.43
2018-12-05T18:13:32.829Z,3.41
2018-12-05T18:21:06.957Z,3.51
2018-12-05T18:23:37.697Z,3.50
2018-12-05T18:26:11.382Z,3.52
2018-12-05T18:28:42.239Z,3.55
2018-12-05T18:31:15.660Z,3.59
2018-12-05T18:33:46.973Z,3.59
2018-12-05T18:36:18.812Z,3.60
2018-12-05T18:38:50.036Z,3.62
2018-12-05T18:41:23.517Z,3.64
2018-12-05T18:43:59.629Z,3.62
2018-12-05T18:46:30.752Z,3.70
2018-12-05T18:49:02.031Z,3.67
2018-12-05T18:51:35.940Z,3.64
2018-12-05T18:54:10.248Z,3.67
2018-12-05T18:56:44.142Z,3.68
2018-12-05T18:59:17.827Z,3.71
2018-12-05T19:02:02.301Z,3.71
2018-12-05T19:04:36.541Z,3.71
2018-12-05T19:07:07.953Z,3.72
2018-12-05T19:09:41.634Z,3.64
2018-12-05T19:12:12.920Z,3.65
2018-12-05T19:14:46.253Z,3.67
2018-12-05T19:17:22.733Z,3.65
2018-12-05T19:20:00.277Z,3.65
2018-12-05T19:22:38.049Z,3.68
2018-12-05T19:25:13.515Z,3.72
2018-12-05T19:27:47.315Z,3.73
2018-12-05T19:30:21.196Z,3.75
2018-12-05T19:32:56.309Z,3.77
2018-12-05T19:35:31.460Z,3.83
2018-12-05T19:38:06.789Z,3.84
2018-12-05T19:41:10.222Z,3.87
2018-12-05T19:43:44.711Z,3.88
2018-12-05T19:46:18.451Z,3.88
2018-12-05T19:48:49.981Z,3.92
2018-12-05T19:51:24.671Z,3.91
2018-12-05T19:54:00.185Z,3.93
2018-12-05T19:56:35.441Z,3.97
2018-12-05T19:59:10.898Z,3.97
2018-12-05T20:01:42.535Z,3.97
2018-12-05T20:04:15.813Z,3.95
2018-12-05T20:09:38.758Z,4.10
2018-12-05T20:12:16.651Z,4.14
2018-12-05T20:14:49.077Z,4.14
2018-12-05T20:17:23.893Z,4.12
2018-12-05T20:19:59.728Z,4.16
2018-12-05T20:22:34.106Z,4.17
2018-12-05T20:25:13.169Z,4.17
2018-12-05T20:27:50.108Z,4.18
2018-12-05T20:30:21.369Z,4.18
2018-12-05T20:32:56.860Z,4.20
2018-12-05T20:35:33.362Z,4.20
2018-12-05T20:38:14.936Z,4.18
2018-12-05T20:40:48.939Z,4.17
2018-12-05T20:43:20.995Z,4.20
2018-12-05T20:45:54.945Z,4.21
2018-12-05T20:48:30.718Z,4.19
2018-12-05T20:51:10.876Z,4.17
2018-12-05T20:53:45.905Z,4.21
2018-12-05T20:56:33.532Z,4.22
2018-12-05T20:59:09.567Z,4.17
2018-12-05T21:01:50.966Z,4.21
2018-12-05T21:04:23.886Z,4.20
2018-12-05T21:06:57.314Z,4.25
2018-12-05T21:09:31.215Z,4.25
2018-12-05T21:12:02.941Z,4.20
2018-12-05T21:14:36.621Z,4.31
2018-12-05T21:17:15.264Z,4.32
2018-12-05T21:19:49.184Z,4.35
2018-12-05T21:22:27.285Z,4.38
2018-12-05T21:25:07.655Z,4.38
2018-12-05T21:27:45.742Z,4.32
2018-12-05T21:30:20.646Z,4.38
2018-12-05T21:32:53.972Z,4.41
2018-12-05T21:35:25.626Z,4.41
2018-12-05T21:38:01.745Z,4.41
2018-12-05T21:40:34.972Z,4.44
2018-12-05T21:43:08.601Z,4.43
2018-12-05T21:45:39.961Z,4.48
2018-12-05T21:48:13.006Z,4.52
2018-12-05T21:50:44.462Z,4.58
2018-12-05T21:53:16.030Z,4.54
2018-12-05T21:55:47.506Z,4.56
2018-12-05T21:58:21.073Z,4.57
2018-12-05T22:01:01.450Z,4.59
2018-12-05T22:03:34.853Z,4.60
2018-12-05T22:06:07.886Z,4.54
2018-12-05T22:08:39.481Z,4.55
2018-12-05T22:11:10.561Z,4.53
2018-12-05T22:13:48.062Z,4.48
2018-12-05T22:16:23.898Z,4.46
2018-12-05T22:18:56.992Z,4.41
2018-12-05T22:21:30.058Z,4.45
2018-12-05T22:24:05.759Z,4.37
2018-12-05T22:26:43.554Z,4.31
2018-12-05T22:29:16.790Z,4.25
2018-12-05T22:31:48.164Z,4.27
2018-12-05T22:34:19.173Z,4.28
2018-12-05T22:36:52.621Z,4.25
2018-12-05T22:39:26.313Z,4.20
2018-12-05T22:41:59.440Z,4.21
2018-12-05T22:44:30.848Z,4.18
2018-12-05T22:47:04.082Z,4.14
2018-12-05T22:49:37.037Z,4.15
2018-12-05T22:52:08.599Z,4.13
2018-12-05T22:54:39.525Z,4.13
2018-12-05T22:57:13.667Z,4.12
2018-12-05T22:59:45.273Z,4.09
2018-12-05T23:02:18.376Z,4.04
2018-12-05T23:04:49.626Z,4.01
2018-12-05T23:07:20.535Z,4.01
2018-12-05T23:09:55.915Z,4.06
2018-12-05T23:12:28.994Z,4.06
2018-12-05T23:15:00.136Z,4.08
2018-12-05T23:17:33.481Z,4.10
2018-12-05T23:20:05.388Z,4.12
2018-12-05T23:22:38.353Z,4.19
2018-12-05T23:25:09.690Z,4.18
2018-12-05T23:27:40.522Z,4.19
2018-12-05T23:30:14.066Z,4.20
2018-12-05T23:32:47.108Z,4.23
2018-12-05T23:35:18.677Z,4.30
2018-12-05T23:37:53.782Z,4.38
2018-12-05T23:40:26.824Z,4.37
2018-12-05T23:43:00.102Z,4.36
2018-12-05T23:45:33.827Z,4.30
2018-12-05T23:48:04.917Z,4.22
2018-12-05T23:50:36.397Z,4.21
2018-12-05T23:53:11.559Z,4.22
2018-12-05T23:55:46.381Z,4.22
2018-12-05T23:58:23.361Z,4.20
